createdAt,value
2023-05-02T00:02:17.956Z,5.28
2023-05-02T00:04:44.978Z,3.72
2023-05-02T00:07:12.196Z,4.22
2023-05-02T00:09:39.164Z,4.45
2023-05-02T00:12:06.189Z,6.20
2023-05-02T00:14:33.138Z,5.22
2023-05-02T00:17:00.154Z,3.72
2023-05-02T00:19:27.116Z,4.10
2023-05-02T00:21:54.181Z,3.45
2023-05-02T00:24:21.090Z,3.33
2023-05-02T00:26:48.069Z,3.72
2023-05-02T00:29:15.000Z,3.42
2023-05-02T00:31:42.141Z,3.35
2023-05-02T00:34:09.281Z,2.85
2023-05-02T00:36:36.221Z,3.78
2023-05-02T00:39:04.184Z,3.45
2023-05-02T00:41:31.140Z,3.67
2023-05-02T00:43:58.619Z,3.13
2023-05-02T00:46:26.067Z,5.22
2023-05-02T00:48:53.315Z,3.15
2023-05-02T00:51:20.418Z,3.92
2023-05-02T00:53:47.933Z,2.75
2023-05-02T00:59:14.555Z,3.17
2023-05-02T01:02:03.163Z,3.67
2023-05-02T01:05:03.753Z,3.78
2023-05-02T01:07:55.650Z,3.30
2023-05-02T01:11:08.790Z,3.42
2023-05-02T01:13:37.332Z,4.22
2023-05-02T01:16:06.243Z,3.92
2023-05-02T01:18:38.739Z,3.00
2023-05-02T01:21:09.265Z,3.85
2023-05-02T01:24:14.103Z,3.80
2023-05-02T01:26:49.921Z,4.28
2023-05-02T01:29:18.430Z,3.90
2023-05-02T01:31:49.933Z,5.25
2023-05-02T01:34:21.495Z,4.10
2023-05-02T01:36:51.054Z,4.65
2023-05-02T01:39:24.123Z,4.22
2023-05-02T01:41:53.547Z,4.27
2023-05-02T01:44:23.406Z,3.88
2023-05-02T01:46:53.125Z,3.78
2023-05-02T01:49:21.950Z,4.03
2023-05-02T01:51:52.356Z,4.90
2023-05-02T01:54:23.149Z,4.53
2023-05-02T01:56:50.762Z,4.40
2023-05-02T01:59:22.237Z,5.90
2023-05-02T02:01:51.577Z,6.53
2023-05-02T02:04:20.106Z,6.88
2023-05-02T02:06:52.266Z,5.43
2023-05-02T02:09:19.719Z,5.47
2023-05-02T02:11:59.908Z,4.53
2023-05-02T02:14:37.728Z,4.30
2023-05-02T02:17:22.344Z,5.07
2023-05-02T02:19:54.086Z,5.70
2023-05-02T02:22:23.395Z,3.63
2023-05-02T02:24:54.397Z,4.35
2023-05-02T02:27:21.582Z,5.20
2023-05-02T02:29:48.543Z,6.30
2023-05-02T02:32:15.670Z,5.93
2023-05-02T02:34:42.719Z,5.68
2023-05-02T02:37:20.417Z,7.30
2023-05-02T02:39:47.317Z,5.50
2023-05-02T02:42:25.663Z,7.70
2023-05-02T02:45:11.682Z,6.85
2023-05-02T02:47:44.050Z,5.65
2023-05-02T02:50:32.966Z,5.72
2023-05-02T02:53:04.312Z,5.65
2023-05-02T02:55:40.249Z,5.72
2023-05-02T02:58:27.185Z,5.93
2023-05-02T03:00:54.691Z,4.28
2023-05-02T03:03:29.157Z,5.13
2023-05-02T03:05:57.674Z,4.40
2023-05-02T03:08:25.995Z,5.85
2023-05-02T03:10:53.428Z,4.40
2023-05-02T03:13:20.406Z,5.28
2023-05-02T03:15:54.053Z,3.92
2023-05-02T03:18:21.362Z,3.60
2023-05-02T03:20:48.284Z,2.75
2023-05-02T03:23:15.358Z,4.53
2023-05-02T03:25:43.132Z,5.13
2023-05-02T03:28:11.039Z,3.63
2023-05-02T03:30:40.757Z,4.22
2023-05-02T03:33:08.945Z,3.03
2023-05-02T03:35:35.995Z,6.57
2023-05-02T03:38:03.175Z,2.67
2023-05-02T03:40:30.186Z,2.92
2023-05-02T03:42:57.524Z,2.78
2023-05-02T03:45:24.384Z,2.58
2023-05-02T03:47:51.503Z,3.10
2023-05-02T03:50:19.224Z,3.15
2023-05-02T03:52:46.909Z,2.47
2023-05-02T03:55:14.040Z,2.35
2023-05-02T03:57:41.107Z,2.90
2023-05-02T04:00:09.056Z,4.10
2023-05-02T04:02:37.317Z,2.50
2023-05-02T04:05:04.701Z,3.30
2023-05-02T04:07:31.821Z,2.35
2023-05-02T04:10:00.143Z,5.72
2023-05-02T04:12:27.370Z,2.00
2023-05-02T04:14:55.746Z,3.92
2023-05-02T04:17:22.650Z,1.98
2023-05-02T04:19:49.847Z,2.38
2023-05-02T04:22:16.846Z,2.58
2023-05-02T04:24:43.788Z,2.40
2023-05-02T04:27:12.005Z,2.45
2023-05-02T04:29:40.687Z,2.17
2023-05-02T04:32:07.922Z,2.28
2023-05-02T04:34:39.498Z,2.80
2023-05-02T04:37:06.467Z,2.70
2023-05-02T04:39:34.563Z,1.92
2023-05-02T04:42:01.618Z,2.00
2023-05-02T04:44:30.252Z,2.00
2023-05-02T04:46:59.138Z,3.53
2023-05-02T04:49:27.833Z,2.17
2023-05-02T04:51:55.037Z,2.67
2023-05-02T04:54:25.200Z,2.38
2023-05-02T04:56:53.240Z,2.63
2023-05-02T04:59:25.937Z,2.28
2023-05-02T05:01:54.975Z,2.65
2023-05-02T05:04:27.943Z,4.00
2023-05-02T05:07:01.545Z,3.10
2023-05-02T05:09:31.743Z,2.25
2023-05-02T05:11:58.905Z,5.03
2023-05-02T05:14:25.901Z,4.32
2023-05-02T05:16:52.974Z,2.85
2023-05-02T05:19:20.012Z,2.67
2023-05-02T05:21:50.372Z,3.00
2023-05-02T05:24:20.476Z,3.42
2023-05-02T05:26:47.824Z,3.13
2023-05-02T05:29:15.811Z,3.92
2023-05-02T05:31:43.130Z,3.97
2023-05-02T05:34:10.457Z,3.83
2023-05-02T05:36:40.764Z,4.50
2023-05-02T05:39:08.034Z,4.00
2023-05-02T05:41:39.466Z,4.63
2023-05-02T05:44:07.836Z,3.20
2023-05-02T05:46:35.372Z,3.00
2023-05-02T05:49:02.460Z,3.30
2023-05-02T05:51:30.498Z,3.28
2023-05-02T05:53:57.726Z,2.65
2023-05-02T05:56:24.891Z,2.88
2023-05-02T05:58:52.510Z,3.58
2023-05-02T06:01:22.088Z,4.22
2023-05-02T06:03:56.759Z,3.78
2023-05-02T06:06:25.659Z,2.92
2023-05-02T06:08:52.782Z,3.83
2023-05-02T06:11:20.026Z,3.25
2023-05-02T06:13:47.060Z,4.40
2023-05-02T06:16:14.173Z,3.88
2023-05-02T06:18:44.735Z,3.58
2023-05-02T06:21:11.821Z,2.60
2023-05-02T06:23:43.153Z,4.05
2023-05-02T06:26:14.468Z,3.85
2023-05-02T06:28:42.943Z,3.08
2023-05-02T06:31:10.187Z,3.25
2023-05-02T06:33:39.605Z,3.22
2023-05-02T06:36:07.739Z,2.33
2023-05-02T06:38:40.658Z,3.15
2023-05-02T06:41:12.613Z,3.15
2023-05-02T06:43:39.521Z,4.00
2023-05-02T06:46:11.673Z,3.17
2023-05-02T06:48:39.126Z,4.18
2023-05-02T06:51:09.189Z,3.45
2023-05-02T06:53:36.858Z,2.58
2023-05-02T06:56:06.516Z,4.00
2023-05-02T06:58:33.622Z,2.90
2023-05-02T07:01:01.331Z,3.38
2023-05-02T07:03:30.815Z,5.22
2023-05-02T07:06:02.248Z,3.58
2023-05-02T07:08:32.481Z,2.50
2023-05-02T07:11:04.874Z,2.30
2023-05-02T07:13:34.160Z,3.45
2023-05-02T07:16:02.382Z,3.80
2023-05-02T07:18:31.505Z,3.35
2023-05-02T07:21:01.495Z,2.75
2023-05-02T07:23:28.691Z,2.92
2023-05-02T07:25:55.955Z,2.50
2023-05-02T07:28:24.744Z,3.85
2023-05-02T07:30:52.357Z,3.45
2023-05-02T07:33:24.010Z,3.58
2023-05-02T07:35:52.239Z,2.38
2023-05-02T07:38:19.455Z,4.47
2023-05-02T07:40:47.080Z,3.03
2023-05-02T07:43:16.116Z,3.20
2023-05-02T07:45:43.954Z,3.22
2023-05-02T07:48:12.301Z,2.92
2023-05-02T07:50:42.105Z,4.30
2023-05-02T07:53:09.083Z,2.58
2023-05-02T07:55:36.430Z,1.92
2023-05-02T07:58:04.976Z,1.92
2023-05-02T08:00:32.078Z,2.53
2023-05-02T08:03:02.179Z,1.90
2023-05-02T08:05:29.354Z,1.70
2023-05-02T08:07:56.325Z,1.65
2023-05-02T08:10:24.763Z,2.22
2023-05-02T08:12:51.816Z,1.60
2023-05-02T08:15:19.021Z,1.55
2023-05-02T08:17:47.469Z,1.30
2023-05-02T08:20:14.608Z,1.73
2023-05-02T08:22:46.965Z,2.20
2023-05-02T08:25:14.026Z,1.42
2023-05-02T08:27:41.876Z,2.28
2023-05-02T08:30:09.228Z,1.35
2023-05-02T08:32:41.964Z,1.50
2023-05-02T08:35:13.465Z,2.00
2023-05-02T08:37:40.605Z,1.27
2023-05-02T08:40:12.725Z,1.02
2023-05-02T08:42:44.927Z,1.10
2023-05-02T08:45:16.538Z,1.45
2023-05-02T08:47:44.802Z,2.30
2023-05-02T08:50:13.378Z,1.25
2023-05-02T08:52:42.956Z,1.73
2023-05-02T08:55:13.432Z,2.05
2023-05-02T08:57:43.853Z,2.20
2023-05-02T09:00:12.137Z,1.77
2023-05-02T09:03:08.728Z,1.23
2023-05-02T09:05:41.133Z,1.17
2023-05-02T09:08:09.135Z,1.38
2023-05-02T09:10:42.023Z,1.50
2023-05-02T09:13:29.674Z,1.85
2023-05-02T09:16:07.625Z,0.90
2023-05-02T09:18:43.786Z,1.63
2023-05-02T09:21:12.854Z,1.08
2023-05-02T09:23:45.201Z,1.75
2023-05-02T09:26:18.316Z,0.95
2023-05-02T09:28:46.754Z,2.83
2023-05-02T09:31:26.876Z,1.35
2023-05-02T09:34:14.140Z,1.85
2023-05-02T09:36:45.999Z,1.98
2023-05-02T09:39:18.576Z,1.85
2023-05-02T09:41:48.275Z,1.10
2023-05-02T09:44:22.718Z,1.33
2023-05-02T09:46:52.017Z,1.40
2023-05-02T09:49:20.764Z,1.20
2023-05-02T09:51:49.104Z,1.75
2023-05-02T09:54:37.008Z,1.10
2023-05-02T09:57:04.661Z,2.42
2023-05-02T09:59:32.197Z,1.55
2023-05-02T10:02:11.298Z,1.58
2023-05-02T10:04:40.460Z,1.23
2023-05-02T10:07:12.444Z,1.52
2023-05-02T10:09:46.634Z,2.05
2023-05-02T10:12:18.020Z,1.27
2023-05-02T10:15:03.659Z,1.67
2023-05-02T10:17:37.122Z,1.15
2023-05-02T10:20:06.660Z,1.10
2023-05-02T10:22:37.202Z,2.38
2023-05-02T10:25:04.792Z,1.23
2023-05-02T10:27:32.813Z,1.00
2023-05-02T10:30:01.331Z,0.98
2023-05-02T10:32:31.715Z,1.85
2023-05-02T10:35:04.183Z,1.00
2023-05-02T10:37:34.750Z,1.25
2023-05-02T10:40:02.354Z,1.20
2023-05-02T10:42:30.728Z,0.88
2023-05-02T10:45:00.027Z,0.95
2023-05-02T10:47:35.480Z,1.63
2023-05-02T10:50:16.745Z,1.20
2023-05-02T10:52:45.258Z,1.73
2023-05-02T10:55:40.353Z,2.20
2023-05-02T10:58:07.727Z,1.50
2023-05-02T11:00:37.867Z,1.45
2023-05-02T11:03:06.389Z,1.60
2023-05-02T11:06:11.829Z,1.60
2023-05-02T11:08:38.960Z,1.55
2023-05-02T11:11:49.872Z,2.20
2023-05-02T11:14:25.841Z,1.40
2023-05-02T11:17:05.706Z,1.70
2023-05-02T11:19:50.352Z,1.60
2023-05-02T11:22:20.776Z,1.23
2023-05-02T11:24:49.220Z,1.02
2023-05-02T11:27:35.739Z,0.80
2023-05-02T11:30:09.060Z,1.77
2023-05-02T11:32:49.988Z,1.38
2023-05-02T11:35:25.077Z,1.70
2023-05-02T11:38:03.572Z,0.70
2023-05-02T11:40:31.778Z,2.08
2023-05-02T11:43:00.649Z,1.20
2023-05-02T11:45:39.296Z,1.00
2023-05-02T11:48:07.496Z,0.93
2023-05-02T11:50:51.987Z,1.30
2023-05-02T11:53:25.053Z,1.00
2023-05-02T11:56:06.561Z,1.35
2023-05-02T11:58:34.263Z,1.20
2023-05-02T12:01:16.142Z,0.73
2023-05-02T12:03:43.967Z,0.60
2023-05-02T12:06:16.557Z,0.77
2023-05-02T12:08:44.929Z,0.50
2023-05-02T12:11:16.750Z,0.60
2023-05-02T12:13:51.926Z,0.70
2023-05-02T12:16:20.896Z,0.70
2023-05-02T12:18:48.634Z,0.82
2023-05-02T12:21:18.742Z,0.50
2023-05-02T12:23:46.393Z,0.40
2023-05-02T12:26:34.975Z,0.50
2023-05-02T12:29:03.078Z,0.50
2023-05-02T12:31:32.399Z,0.65
2023-05-02T12:34:01.770Z,0.70
2023-05-02T12:36:30.158Z,0.60
2023-05-02T12:39:03.077Z,0.95
2023-05-02T12:41:37.104Z,0.52
2023-05-02T12:44:08.157Z,0.70
2023-05-02T12:46:37.118Z,0.55
2023-05-02T12:49:12.263Z,0.90
2023-05-02T12:51:40.595Z,0.50
2023-05-02T12:54:08.781Z,0.52
2023-05-02T12:56:41.309Z,0.90
2023-05-02T12:59:30.582Z,1.73
2023-05-02T13:02:01.275Z,1.00
2023-05-02T13:04:54.628Z,0.85
2023-05-02T13:07:24.090Z,2.28
2023-05-02T13:10:07.334Z,1.27
2023-05-02T13:12:38.372Z,1.30
2023-05-02T13:15:07.381Z,2.25
2023-05-02T13:17:35.582Z,1.02
2023-05-02T13:20:04.282Z,1.42
2023-05-02T13:22:31.668Z,2.35
2023-05-02T13:24:59.071Z,0.82
2023-05-02T13:27:26.825Z,1.10
2023-05-02T13:29:56.251Z,1.60
2023-05-02T13:32:26.358Z,0.90
2023-05-02T13:34:55.217Z,1.40
2023-05-02T13:37:28.006Z,0.68
2023-05-02T13:39:55.545Z,1.10
2023-05-02T13:42:26.818Z,1.33
2023-05-02T13:44:54.102Z,0.82
2023-05-02T13:47:24.652Z,0.65
2023-05-02T13:49:53.641Z,1.05
2023-05-02T13:52:24.940Z,1.10
2023-05-02T13:54:54.036Z,0.70
2023-05-02T13:57:24.495Z,1.13
2023-05-02T13:59:52.270Z,0.80
2023-05-02T14:02:21.041Z,1.02
2023-05-02T14:04:51.129Z,0.80
2023-05-02T14:07:21.742Z,0.88
2023-05-02T14:09:51.883Z,0.70
2023-05-02T14:12:19.057Z,0.95
2023-05-02T14:14:46.643Z,0.77
2023-05-02T14:17:15.177Z,0.65
2023-05-02T14:19:42.580Z,1.20
2023-05-02T14:22:09.714Z,0.80
2023-05-02T14:24:36.664Z,1.08
2023-05-02T14:27:04.931Z,1.17
2023-05-02T14:29:32.230Z,1.05
2023-05-02T14:31:59.590Z,1.00
2023-05-02T14:34:27.281Z,0.90
2023-05-02T14:36:55.263Z,1.98
2023-05-02T14:39:22.253Z,0.93
2023-05-02T14:41:49.359Z,0.90
2023-05-02T14:44:16.594Z,0.90
2023-05-02T14:46:43.575Z,0.90
2023-05-02T14:49:10.589Z,1.27
2023-05-02T14:51:39.495Z,0.98
2023-05-02T14:54:07.768Z,1.42
2023-05-02T14:56:34.977Z,1.40
2023-05-02T14:59:01.986Z,1.10
2023-05-02T15:01:30.425Z,0.70
2023-05-02T15:04:06.719Z,1.70
2023-05-02T15:06:36.012Z,0.77
2023-05-02T15:09:05.467Z,0.70
2023-05-02T15:11:32.776Z,0.80
2023-05-02T15:14:02.115Z,0.95
2023-05-02T15:16:29.818Z,1.30
2023-05-02T15:18:57.514Z,1.23
2023-05-02T15:21:26.872Z,1.02
2023-05-02T15:23:54.434Z,1.10
2023-05-02T15:26:21.435Z,1.00
2023-05-02T15:28:49.199Z,1.25
2023-05-02T15:31:16.317Z,1.75
2023-05-02T15:33:45.491Z,1.30
2023-05-02T15:36:12.487Z,1.95
2023-05-02T15:38:45.523Z,1.20
2023-05-02T15:41:12.545Z,0.80
2023-05-02T15:43:40.965Z,1.30
2023-05-02T15:46:08.680Z,2.00
2023-05-02T15:48:35.879Z,0.80
2023-05-02T15:51:05.410Z,1.75
2023-05-02T15:53:32.898Z,1.02
2023-05-02T15:56:02.958Z,1.25
2023-05-02T15:58:30.518Z,0.90
2023-05-02T16:01:00.026Z,1.40
2023-05-02T16:03:28.748Z,0.68
2023-05-02T16:05:58.076Z,1.42
2023-05-02T16:08:28.396Z,1.10
2023-05-02T16:10:56.050Z,2.20
2023-05-02T16:13:24.163Z,1.67
2023-05-02T16:15:54.183Z,1.63
2023-05-02T16:18:23.158Z,1.20
2023-05-02T16:20:53.053Z,1.23
2023-05-02T16:23:22.254Z,1.20
2023-05-02T16:25:49.605Z,0.77
2023-05-02T16:28:16.762Z,1.20
2023-05-02T16:30:46.901Z,1.23
2023-05-02T16:33:15.117Z,1.30
2023-05-02T16:35:42.148Z,1.25
2023-05-02T16:38:09.208Z,1.52
2023-05-02T16:40:36.999Z,1.02
2023-05-02T16:43:04.043Z,1.10
2023-05-02T16:45:31.129Z,1.10
2023-05-02T16:48:00.773Z,1.98
2023-05-02T16:50:27.717Z,1.42
2023-05-02T16:52:59.821Z,1.10
2023-05-02T16:55:26.791Z,2.28
2023-05-02T16:57:56.882Z,2.45
2023-05-02T17:00:27.394Z,0.75
2023-05-02T17:02:57.086Z,0.98
2023-05-02T17:05:24.904Z,1.30
2023-05-02T17:07:54.278Z,1.10
2023-05-02T17:10:21.432Z,1.65
2023-05-02T17:12:48.596Z,1.42
2023-05-02T17:15:16.036Z,2.53
2023-05-02T17:17:46.018Z,0.95
2023-05-02T17:20:14.296Z,0.80
2023-05-02T17:22:41.828Z,1.08
2023-05-02T17:25:10.991Z,1.50
2023-05-02T17:27:40.882Z,1.33
2023-05-02T17:30:09.074Z,1.48
2023-05-02T17:32:37.791Z,1.30
2023-05-02T17:35:07.939Z,1.33
2023-05-02T17:37:41.076Z,0.73
2023-05-02T17:40:10.410Z,1.70
2023-05-02T17:42:46.137Z,0.90
2023-05-02T17:45:13.711Z,1.05
2023-05-02T17:47:41.761Z,1.45
2023-05-02T17:50:10.010Z,1.30
2023-05-02T17:52:37.392Z,1.08
2023-05-02T17:55:04.761Z,2.75
2023-05-02T17:57:33.911Z,1.98
2023-05-02T18:00:04.856Z,0.90
2023-05-02T18:02:34.179Z,1.05
2023-05-02T18:05:07.116Z,1.15
2023-05-02T18:07:34.096Z,0.93
2023-05-02T18:10:03.618Z,0.80
2023-05-02T18:12:33.013Z,0.98
2023-05-02T18:15:04.566Z,1.08
2023-05-02T18:17:32.621Z,1.38
2023-05-02T18:19:59.870Z,1.23
2023-05-02T18:22:27.998Z,1.23
2023-05-02T18:24:55.987Z,1.05
2023-05-02T18:27:23.076Z,1.35
2023-05-02T18:29:50.298Z,1.38
2023-05-02T18:32:17.421Z,1.75
2023-05-02T18:34:44.555Z,1.25
2023-05-02T18:37:12.305Z,1.70
2023-05-02T18:39:39.584Z,1.67
2023-05-02T18:42:11.094Z,1.83
2023-05-02T18:44:38.175Z,1.33
2023-05-02T18:47:05.443Z,1.63
2023-05-02T18:49:32.659Z,1.42
2023-05-02T18:51:59.872Z,1.08
2023-05-02T18:54:30.457Z,1.88
2023-05-02T18:56:57.747Z,2.05
2023-05-02T18:59:24.759Z,0.80
2023-05-02T19:01:52.114Z,1.42
2023-05-02T19:04:19.591Z,1.27
2023-05-02T19:06:46.889Z,1.52
2023-05-02T19:09:19.602Z,1.48
2023-05-02T19:11:46.714Z,1.25
2023-05-02T19:14:13.721Z,1.58
2023-05-02T19:16:41.220Z,1.00
2023-05-02T19:19:08.586Z,1.58
2023-05-02T19:21:36.395Z,1.65
2023-05-02T19:24:04.004Z,1.52
2023-05-02T19:26:31.155Z,1.98
2023-05-02T19:28:59.924Z,0.88
2023-05-02T19:31:27.535Z,1.83
2023-05-02T19:33:55.054Z,1.20
2023-05-02T19:36:27.483Z,1.30
2023-05-02T19:38:56.126Z,2.10
2023-05-02T19:41:23.292Z,2.30
2023-05-02T19:43:51.077Z,1.60
2023-05-02T19:46:18.871Z,2.08
2023-05-02T19:48:46.210Z,1.52
2023-05-02T19:51:16.254Z,1.80
2023-05-02T19:53:45.581Z,1.20
2023-05-02T19:56:12.818Z,1.80
2023-05-02T19:58:39.883Z,1.67
2023-05-02T20:01:07.301Z,1.50
2023-05-02T20:03:35.155Z,1.63
2023-05-02T20:06:03.042Z,1.27
2023-05-02T20:08:36.466Z,1.63
2023-05-02T20:11:03.675Z,1.40
2023-05-02T20:13:30.788Z,2.65
2023-05-02T20:15:57.922Z,1.30
2023-05-02T20:18:24.877Z,1.20
2023-05-02T20:20:55.915Z,1.77
2023-05-02T20:23:23.215Z,1.60
2023-05-02T20:25:51.683Z,1.48
2023-05-02T20:28:18.685Z,1.50
2023-05-02T20:30:45.766Z,1.70
2023-05-02T20:33:16.569Z,2.13
2023-05-02T20:35:44.902Z,2.35
2023-05-02T20:38:13.105Z,1.70
2023-05-02T20:40:43.387Z,2.40
2023-05-02T20:43:11.888Z,1.35
2023-05-02T20:45:40.559Z,1.70
2023-05-02T20:48:07.775Z,2.05
2023-05-02T20:50:34.799Z,2.50
2023-05-02T20:53:02.321Z,1.83
2023-05-02T20:55:29.733Z,1.65
2023-05-02T20:57:57.348Z,1.52
2023-05-02T21:00:24.421Z,2.00
2023-05-02T21:02:51.656Z,1.35
2023-05-02T21:05:18.906Z,2.42
2023-05-02T21:07:47.429Z,1.80
2023-05-02T21:10:16.254Z,1.67
2023-05-02T21:12:44.152Z,2.58
2023-05-02T21:15:14.405Z,1.70
2023-05-02T21:17:41.439Z,1.30
2023-05-02T21:20:10.374Z,1.77
2023-05-02T21:22:37.910Z,1.73
2023-05-02T21:25:08.235Z,2.13
2023-05-02T21:27:38.225Z,1.73
2023-05-02T21:30:07.412Z,2.95
2023-05-02T21:32:35.409Z,2.13
2023-05-02T21:35:03.781Z,2.10
2023-05-02T21:37:31.791Z,4.32
2023-05-02T21:39:59.924Z,2.08
2023-05-02T21:42:28.419Z,2.95
2023-05-02T21:44:55.551Z,3.03
2023-05-02T21:47:24.024Z,2.58
2023-05-02T21:49:51.188Z,2.40
2023-05-02T21:52:18.170Z,2.75
2023-05-02T21:54:51.315Z,2.03
2023-05-02T21:57:19.308Z,2.10
2023-05-02T21:59:48.264Z,1.92
2023-05-02T22:02:18.340Z,2.03
2023-05-02T22:04:48.405Z,1.95
2023-05-02T22:07:30.524Z,1.73
2023-05-02T22:09:57.674Z,2.03
2023-05-02T22:12:27.812Z,2.45
2023-05-02T22:14:56.585Z,2.17
2023-05-02T22:17:23.762Z,2.13
2023-05-02T22:19:58.742Z,1.67
2023-05-02T22:22:27.579Z,2.97
2023-05-02T22:24:55.843Z,2.47
2023-05-02T22:27:26.279Z,1.90
2023-05-02T22:29:55.385Z,2.30
2023-05-02T22:32:22.596Z,3.40
2023-05-02T22:34:50.753Z,2.10
2023-05-02T22:37:18.049Z,2.20
2023-05-02T22:39:46.157Z,2.10
2023-05-02T22:42:19.706Z,2.03
2023-05-02T22:44:54.318Z,2.05
2023-05-02T22:47:22.307Z,1.98
2023-05-02T22:49:52.260Z,2.30
2023-05-02T22:52:20.723Z,2.40
2023-05-02T22:54:47.884Z,2.45
2023-05-02T22:57:16.098Z,2.28
2023-05-02T22:59:47.941Z,2.55
2023-05-02T23:02:18.068Z,2.20
2023-05-02T23:04:45.198Z,3.47
2023-05-02T23:07:16.715Z,2.75
2023-05-02T23:09:46.550Z,3.60
2023-05-02T23:12:13.595Z,2.40
2023-05-02T23:14:41.679Z,3.05
2023-05-02T23:17:08.817Z,2.58
2023-05-02T23:19:35.957Z,2.67
2023-05-02T23:22:02.918Z,3.05
2023-05-02T23:24:32.514Z,4.20
2023-05-02T23:26:59.492Z,3.00
2023-05-02T23:29:28.744Z,3.35
2023-05-02T23:31:56.041Z,2.97
2023-05-02T23:34:26.502Z,2.92
2023-05-02T23:36:53.624Z,2.80
2023-05-02T23:39:21.729Z,3.55
2023-05-02T23:41:55.160Z,3.00
2023-05-02T23:44:22.142Z,3.42
2023-05-02T23:46:50.388Z,3.25
2023-05-02T23:49:21.619Z,4.60
2023-05-02T23:51:51.034Z,2.70
2023-05-02T23:54:18.374Z,4.10
2023-05-02T23:56:47.673Z,3.08
2023-05-02T23:59:15.245Z,3.28
